createdAt,value
2018-12-18T00:00:25.345Z,11.57
2018-12-18T00:02:53.741Z,6.50
2018-12-18T00:05:27.369Z,6.97
2018-12-18T00:07:55.790Z,6.80
2018-12-18T00:10:28.463Z,6.10
2018-12-18T00:12:57.053Z,5.40
2018-12-18T00:15:25.341Z,8.57
2018-12-18T00:17:53.689Z,7.30
2018-12-18T00:20:23.969Z,6.90
2018-12-18T00:22:53.874Z,10.53
2018-12-18T00:25:23.324Z,9.80
2018-12-18T00:27:51.696Z,5.83
2018-12-18T00:30:20.100Z,8.20
2018-12-18T00:32:48.486Z,6.47
2018-12-18T00:35:16.899Z,7.13
2018-12-18T00:37:45.277Z,7.73
2018-12-18T00:40:13.598Z,7.80
2018-12-18T00:42:43.315Z,12.97
2018-12-18T00:45:11.690Z,10.90
2018-12-18T00:47:40.020Z,13.07
2018-12-18T00:50:08.346Z,9.50
2018-12-18T00:52:36.703Z,12.27
2018-12-18T00:55:05.150Z,10.50
2018-12-18T00:57:33.586Z,8.00
2018-12-18T01:00:01.956Z,10.80
2018-12-18T01:02:30.339Z,7.90
2018-12-18T01:04:58.725Z,11.40
2018-12-18T01:07:27.102Z,7.20
2018-12-18T01:09:55.474Z,10.13
2018-12-18T01:12:26.122Z,6.27
2018-12-18T01:14:55.699Z,11.23
2018-12-18T01:17:24.087Z,5.77
2018-12-18T01:19:52.460Z,11.23
2018-12-18T01:22:20.979Z,7.80
2018-12-18T01:24:49.382Z,7.40
2018-12-18T01:27:17.669Z,8.67
2018-12-18T01:29:46.034Z,6.50
2018-12-18T01:32:15.569Z,6.70
2018-12-18T01:34:43.973Z,11.00
2018-12-18T01:37:12.339Z,5.33
2018-12-18T01:39:40.668Z,11.00
2018-12-18T01:42:11.047Z,8.50
2018-12-18T01:44:41.009Z,8.47
2018-12-18T01:47:09.360Z,12.03
2018-12-18T01:49:37.682Z,5.77
2018-12-18T01:52:06.056Z,11.07
2018-12-18T01:54:34.403Z,7.77
2018-12-18T01:57:04.683Z,8.40
2018-12-18T01:59:33.081Z,5.17
2018-12-18T02:02:01.440Z,9.03
2018-12-18T02:04:29.883Z,6.43
2018-12-18T02:06:59.360Z,6.97
2018-12-18T02:09:28.562Z,7.00
2018-12-18T02:11:57.024Z,9.23
2018-12-18T02:14:26.159Z,5.73
2018-12-18T02:16:57.769Z,11.83
2018-12-18T02:19:28.177Z,13.57
2018-12-18T02:21:56.547Z,18.73
2018-12-18T02:24:24.860Z,10.50
2018-12-18T02:26:53.270Z,13.73
2018-12-18T02:29:21.643Z,6.83
2018-12-18T02:31:49.951Z,9.60
2018-12-18T02:34:18.989Z,16.07
2018-12-18T02:36:47.360Z,13.97
2018-12-18T02:39:15.784Z,8.57
2018-12-18T02:41:44.102Z,11.63
2018-12-18T02:44:12.423Z,7.50
2018-12-18T02:46:40.733Z,8.10
2018-12-18T02:49:10.950Z,6.17
2018-12-18T02:51:39.515Z,9.23
2018-12-18T02:54:07.975Z,3.73
2018-12-18T02:56:36.340Z,7.87
2018-12-18T02:59:04.672Z,10.90
2018-12-18T03:01:33.113Z,6.07
2018-12-18T03:04:01.480Z,10.23
2018-12-18T03:06:30.350Z,8.93
2018-12-18T03:09:00.560Z,6.40
2018-12-18T03:11:29.242Z,7.17
2018-12-18T03:13:57.725Z,10.40
2018-12-18T03:16:26.232Z,8.17
2018-12-18T03:18:54.712Z,6.80
2018-12-18T03:21:23.343Z,8.57
2018-12-18T03:23:51.689Z,6.47
2018-12-18T03:26:20.152Z,6.40
2018-12-18T03:28:48.479Z,7.33
2018-12-18T03:31:21.356Z,5.63
2018-12-18T03:33:50.761Z,6.30
2018-12-18T03:36:23.621Z,5.57
2018-12-18T03:38:52.059Z,8.23
2018-12-18T03:41:20.387Z,6.43
2018-12-18T03:43:50.038Z,7.30
2018-12-18T03:46:18.893Z,14.33
2018-12-18T03:48:47.274Z,5.53
2018-12-18T03:51:15.571Z,8.67
2018-12-18T03:53:43.906Z,5.50
2018-12-18T03:56:12.999Z,7.27
2018-12-18T03:58:41.412Z,11.67
2018-12-18T04:01:09.837Z,11.80
2018-12-18T04:03:38.190Z,6.90
2018-12-18T04:06:06.567Z,3.27
2018-12-18T04:08:35.742Z,5.80
2018-12-18T04:11:05.075Z,8.87
2018-12-18T04:13:33.383Z,6.80
2018-12-18T04:16:01.681Z,6.47
2018-12-18T04:18:30.031Z,12.37
2018-12-18T04:20:58.380Z,8.20
2018-12-18T04:23:26.740Z,7.57
2018-12-18T04:25:56.124Z,6.53
2018-12-18T04:28:24.481Z,6.90
2018-12-18T04:30:52.816Z,4.50
2018-12-18T04:33:29.625Z,11.93
2018-12-18T04:35:58.450Z,9.20
2018-12-18T04:38:26.766Z,8.60
2018-12-18T04:40:55.131Z,12.03
2018-12-18T04:43:23.541Z,9.37
2018-12-18T04:45:51.883Z,4.40
2018-12-18T04:48:21.585Z,6.53
2018-12-18T04:50:51.173Z,8.33
2018-12-18T04:53:20.542Z,5.50
2018-12-18T04:55:50.498Z,6.70
2018-12-18T04:58:19.809Z,6.03
2018-12-18T05:00:48.715Z,12.00
2018-12-18T05:03:17.163Z,7.73
2018-12-18T05:05:45.495Z,6.03
2018-12-18T05:08:13.854Z,11.13
2018-12-18T05:10:42.244Z,7.30
2018-12-18T05:13:10.622Z,10.73
2018-12-18T05:15:38.979Z,8.87
2018-12-18T05:18:08.211Z,4.57
2018-12-18T05:20:37.452Z,7.47
2018-12-18T05:23:05.767Z,4.10
2018-12-18T05:25:34.126Z,5.60
2018-12-18T05:28:03.027Z,5.70
2018-12-18T05:30:31.418Z,3.33
2018-12-18T05:32:59.805Z,5.30
2018-12-18T05:35:28.125Z,12.47
2018-12-18T05:37:56.462Z,12.80
2018-12-18T05:40:25.599Z,18.70
2018-12-18T05:42:53.996Z,21.00
2018-12-18T05:45:27.603Z,10.17
2018-12-18T05:47:55.983Z,7.93
2018-12-18T05:50:25.225Z,3.40
2018-12-18T05:52:53.623Z,6.93
2018-12-18T05:55:22.329Z,9.30
2018-12-18T05:57:50.729Z,9.17
2018-12-18T06:00:20.076Z,12.87
2018-12-18T06:02:48.398Z,5.03
2018-12-18T06:05:16.726Z,4.20
2018-12-18T06:07:45.022Z,6.00
2018-12-18T06:10:14.562Z,6.97
2018-12-18T06:12:46.111Z,7.30
2018-12-18T06:15:14.963Z,3.73
2018-12-18T06:17:45.557Z,6.10
2018-12-18T06:20:13.955Z,7.30
2018-12-18T06:22:42.297Z,6.63
2018-12-18T06:25:10.601Z,7.50
2018-12-18T06:27:41.019Z,5.00
2018-12-18T06:30:11.125Z,4.70
2018-12-18T06:32:40.512Z,9.60
2018-12-18T06:35:10.406Z,7.67
2018-12-18T06:37:40.603Z,16.87
2018-12-18T06:40:09.653Z,15.33
2018-12-18T06:42:38.021Z,20.90
2018-12-18T06:45:06.685Z,10.63
2018-12-18T06:47:35.404Z,16.33
2018-12-18T06:50:12.182Z,19.03
2018-12-18T06:52:46.149Z,18.03
2018-12-18T06:55:27.973Z,17.17
2018-12-18T06:58:08.153Z,12.83
2018-12-18T07:00:38.241Z,13.80
2018-12-18T07:03:08.623Z,21.53
2018-12-18T07:05:39.273Z,9.80
2018-12-18T07:08:08.875Z,13.00
2018-12-18T07:10:38.093Z,12.57
2018-12-18T07:13:07.461Z,12.27
2018-12-18T07:15:35.810Z,17.00
2018-12-18T07:18:07.140Z,17.40
2018-12-18T07:20:36.978Z,53.27
2018-12-18T07:23:05.538Z,22.03
2018-12-18T07:25:34.811Z,26.60
2018-12-18T07:28:03.170Z,34.57
2018-12-18T07:30:32.249Z,15.30
2018-12-18T07:33:00.650Z,11.40
2018-12-18T07:35:31.008Z,12.43
2018-12-18T07:37:59.411Z,9.90
2018-12-18T07:40:27.767Z,10.03
2018-12-18T07:42:56.121Z,12.73
2018-12-18T07:45:24.504Z,9.50
2018-12-18T07:47:52.953Z,17.47
2018-12-18T07:50:21.315Z,15.53
2018-12-18T07:52:49.642Z,11.47
2018-12-18T07:55:21.642Z,11.40
2018-12-18T07:57:49.951Z,15.43
2018-12-18T08:00:18.301Z,12.43
2018-12-18T08:02:46.641Z,12.90
2018-12-18T08:05:18.602Z,15.77
2018-12-18T08:07:47.899Z,12.47
2018-12-18T08:10:16.265Z,13.03
2018-12-18T08:12:45.584Z,17.80
2018-12-18T08:15:14.270Z,22.53
2018-12-18T08:17:44.404Z,15.67
2018-12-18T08:20:13.390Z,10.17
2018-12-18T08:22:41.826Z,20.53
2018-12-18T08:25:10.248Z,11.03
2018-12-18T08:27:38.586Z,9.73
2018-12-18T08:30:08.032Z,8.33
2018-12-18T08:32:36.947Z,13.07
2018-12-18T08:35:05.376Z,14.83
2018-12-18T08:37:33.784Z,9.57
2018-12-18T08:40:08.569Z,13.53
2018-12-18T08:42:37.189Z,13.03
2018-12-18T08:45:07.013Z,12.30
2018-12-18T08:47:35.747Z,19.43
2018-12-18T08:50:04.630Z,25.33
2018-12-18T08:52:33.941Z,15.63
2018-12-18T08:55:02.484Z,12.17
2018-12-18T08:57:31.586Z,15.23
2018-12-18T09:00:01.097Z,17.97
2018-12-18T09:02:29.819Z,16.10
2018-12-18T09:04:58.407Z,18.17
2018-12-18T09:07:28.067Z,17.93
2018-12-18T09:09:57.319Z,16.87
2018-12-18T09:12:25.707Z,17.17
2018-12-18T09:15:02.646Z,11.67
2018-12-18T09:17:37.072Z,8.93
2018-12-18T09:20:06.335Z,17.40
2018-12-18T09:22:34.803Z,17.80
2018-12-18T09:25:03.139Z,11.33
2018-12-18T09:27:31.815Z,11.90
2018-12-18T09:30:00.201Z,12.53
2018-12-18T09:32:28.732Z,12.23
2018-12-18T09:34:57.225Z,9.33
2018-12-18T09:37:25.762Z,12.77
2018-12-18T09:39:54.302Z,9.03
2018-12-18T09:42:29.041Z,8.87
2018-12-18T09:44:57.728Z,8.27
2018-12-18T09:47:26.238Z,11.90
2018-12-18T09:49:54.756Z,19.67
2018-12-18T09:52:25.171Z,11.90
2018-12-18T09:54:53.611Z,11.33
2018-12-18T09:57:27.257Z,8.63
2018-12-18T09:59:55.654Z,9.53
2018-12-18T10:02:24.011Z,6.90
2018-12-18T10:04:52.385Z,11.50
2018-12-18T10:07:20.763Z,7.97
2018-12-18T10:09:49.125Z,5.90
2018-12-18T10:12:21.744Z,11.77
2018-12-18T10:14:50.071Z,10.70
2018-12-18T10:17:19.232Z,9.07
2018-12-18T10:19:50.388Z,14.40
2018-12-18T10:22:18.917Z,10.37
2018-12-18T10:24:47.662Z,7.27
2018-12-18T10:27:16.046Z,8.13
2018-12-18T10:29:44.431Z,10.53
2018-12-18T10:32:12.821Z,12.87
2018-12-18T10:34:41.178Z,7.73
2018-12-18T10:37:09.907Z,7.50
2018-12-18T10:39:38.306Z,5.87
2018-12-18T10:42:06.733Z,5.30
2018-12-18T10:44:35.136Z,10.17
2018-12-18T10:47:04.680Z,5.20
2018-12-18T10:49:33.219Z,8.17
2018-12-18T10:52:01.647Z,6.43
2018-12-18T10:54:31.009Z,8.60
2018-12-18T10:56:59.349Z,4.97
2018-12-18T10:59:27.735Z,2.60
2018-12-18T11:01:57.246Z,7.37
2018-12-18T11:04:25.677Z,6.23
2018-12-18T11:06:54.080Z,6.23
2018-12-18T11:09:22.723Z,3.60
2018-12-18T11:11:52.006Z,7.73
2018-12-18T11:14:20.422Z,5.37
2018-12-18T11:16:48.990Z,6.50
2018-12-18T11:19:17.417Z,4.20
2018-12-18T11:21:47.147Z,3.73
2018-12-18T11:24:16.126Z,9.33
2018-12-18T11:26:44.529Z,3.53
2018-12-18T11:29:13.240Z,7.23
2018-12-18T11:31:42.587Z,7.40
2018-12-18T11:34:11.299Z,6.97
2018-12-18T11:36:40.335Z,10.77
2018-12-18T11:45:45.624Z,2.73
2018-12-18T11:48:14.019Z,3.20
2018-12-18T11:50:42.553Z,3.50
2018-12-18T11:53:10.911Z,5.50
2018-12-18T11:55:39.987Z,3.73
2018-12-18T11:58:08.326Z,2.77
2018-12-18T12:00:36.918Z,5.00
2018-12-18T12:03:05.976Z,3.30
2018-12-18T12:05:35.175Z,2.30
2018-12-18T12:08:03.538Z,9.67
2018-12-18T12:10:32.215Z,7.03
2018-12-18T12:13:01.358Z,8.47
2018-12-18T12:15:30.556Z,3.50
2018-12-18T12:17:59.230Z,8.27
2018-12-18T12:20:27.613Z,9.10
2018-12-18T12:22:55.986Z,10.83
2018-12-18T12:25:25.321Z,5.90
2018-12-18T12:27:59.079Z,7.50
2018-12-18T12:30:27.807Z,7.37
2018-12-18T12:32:56.244Z,6.50
2018-12-18T12:35:24.715Z,6.87
2018-12-18T12:37:53.349Z,4.40
2018-12-18T12:40:21.754Z,4.83
2018-12-18T12:42:50.226Z,8.53
2018-12-18T12:45:19.715Z,4.50
2018-12-18T12:47:52.251Z,3.90
2018-12-18T12:50:20.622Z,3.20
2018-12-18T12:52:49.003Z,8.67
2018-12-18T12:55:18.081Z,9.03
2018-12-18T12:57:46.679Z,5.90
2018-12-18T13:00:15.440Z,6.53
2018-12-18T13:02:44.962Z,5.80
2018-12-18T13:05:14.400Z,5.30
2018-12-18T13:07:43.935Z,6.30
2018-12-18T13:10:12.369Z,5.23
2018-12-18T13:12:41.191Z,6.90
2018-12-18T13:15:09.687Z,6.80
2018-12-18T13:17:38.098Z,5.00
2018-12-18T13:20:07.746Z,4.53
2018-12-18T13:22:36.887Z,6.87
2018-12-18T13:25:11.070Z,12.17
2018-12-18T13:27:39.768Z,6.13
2018-12-18T13:30:08.388Z,6.30
2018-12-18T13:32:36.969Z,8.60
2018-12-18T13:35:06.699Z,6.00
2018-12-18T13:37:35.269Z,11.20
2018-12-18T13:40:04.976Z,7.70
2018-12-18T13:42:33.379Z,10.00
2018-12-18T13:45:05.581Z,8.93
2018-12-18T13:47:34.004Z,9.67
2018-12-18T13:50:02.370Z,9.83
2018-12-18T13:52:31.035Z,10.27
2018-12-18T13:55:00.759Z,7.30
2018-12-18T13:57:30.034Z,9.37
2018-12-18T13:59:59.864Z,8.63
2018-12-18T14:02:28.509Z,6.87
2018-12-18T14:04:56.892Z,9.53
2018-12-18T14:07:25.323Z,10.00
2018-12-18T14:09:53.732Z,8.83
2018-12-18T14:12:23.210Z,5.83
2018-12-18T14:14:55.337Z,8.40
2018-12-18T14:17:23.833Z,6.17
2018-12-18T14:19:52.296Z,7.70
2018-12-18T14:22:21.397Z,8.33
2018-12-18T14:24:49.785Z,9.30
2018-12-18T14:27:18.183Z,7.20
2018-12-18T14:29:47.150Z,7.47
2018-12-18T14:32:15.551Z,6.17
2018-12-18T14:34:43.945Z,9.10
2018-12-18T14:37:12.946Z,6.10
2018-12-18T14:39:42.336Z,4.50
2018-12-18T14:42:10.998Z,7.10
2018-12-18T14:44:39.392Z,7.70
2018-12-18T14:47:07.817Z,8.37
2018-12-18T14:49:36.488Z,8.63
2018-12-18T14:52:04.919Z,6.20
2018-12-18T14:54:33.744Z,7.63
2018-12-18T14:57:02.121Z,11.83
2018-12-18T14:59:32.214Z,10.37
2018-12-18T15:02:00.678Z,7.27
2018-12-18T15:04:30.408Z,8.33
2018-12-18T15:07:02.883Z,15.93
2018-12-18T15:09:29.430Z,8.83
2018-12-18T15:11:58.840Z,11.00
2018-12-18T15:14:29.786Z,8.33
2018-12-18T15:16:58.268Z,15.60
2018-12-18T15:19:26.638Z,11.80
2018-12-18T15:21:55.036Z,14.57
2018-12-18T15:24:23.760Z,13.90
2018-12-18T15:26:52.177Z,12.70
2018-12-18T15:29:20.593Z,11.97
2018-12-18T15:31:49.055Z,16.90
2018-12-18T15:34:17.437Z,17.63
2018-12-18T15:36:45.817Z,18.37
2018-12-18T15:39:14.205Z,14.73
2018-12-18T15:41:42.606Z,17.17
2018-12-18T15:44:10.984Z,19.17
2018-12-18T15:46:39.432Z,18.77
2018-12-18T15:49:08.288Z,20.90
2018-12-18T15:51:36.695Z,20.87
2018-12-18T15:54:06.099Z,28.50
2018-12-18T15:56:36.207Z,25.97
2018-12-18T15:59:04.650Z,25.43
2018-12-18T16:01:33.068Z,23.47
2018-12-18T16:04:01.457Z,20.07
2018-12-18T16:06:30.456Z,26.03
2018-12-18T16:08:58.868Z,22.40
2018-12-18T16:11:30.815Z,24.07
2018-12-18T16:13:59.323Z,25.23
2018-12-18T16:16:27.845Z,23.97
2018-12-18T16:18:56.216Z,25.33
2018-12-18T16:21:33.831Z,19.43
2018-12-18T16:24:05.100Z,27.63
2018-12-18T16:26:33.516Z,21.33
2018-12-18T16:29:01.977Z,22.67
2018-12-18T16:31:30.361Z,19.67
2018-12-18T16:33:58.774Z,25.53
2018-12-18T16:36:27.299Z,24.33
2018-12-18T16:38:55.774Z,20.27
2018-12-18T16:41:24.373Z,22.50
2018-12-18T16:43:53.227Z,18.00
2018-12-18T16:46:22.952Z,19.70
2018-12-18T16:48:52.174Z,20.53
2018-12-18T16:51:22.041Z,20.87
2018-12-18T16:53:50.412Z,22.13
2018-12-18T16:56:18.901Z,18.80
2018-12-18T16:58:54.392Z,20.60
2018-12-18T17:01:22.788Z,17.70
2018-12-18T17:03:51.212Z,20.00
2018-12-18T17:06:19.677Z,18.40
2018-12-18T17:08:48.099Z,22.23
2018-12-18T17:11:18.011Z,17.90
2018-12-18T17:13:46.557Z,21.03
2018-12-18T17:16:15.141Z,44.50
2018-12-18T17:18:44.504Z,24.37
2018-12-18T17:21:13.182Z,21.50
2018-12-18T17:23:41.885Z,20.07
2018-12-18T17:26:10.401Z,21.90
2018-12-18T17:28:39.019Z,21.20
2018-12-18T17:31:07.739Z,25.13
2018-12-18T17:33:38.390Z,18.83
2018-12-18T17:36:09.817Z,20.13
2018-12-18T17:38:39.799Z,23.90
2018-12-18T17:41:08.290Z,21.50
2018-12-18T17:43:37.788Z,16.83
2018-12-18T17:46:07.297Z,20.30
2018-12-18T17:48:35.912Z,27.13
2018-12-18T17:51:04.382Z,20.43
2018-12-18T17:53:32.983Z,17.90
2018-12-18T17:56:01.448Z,18.47
2018-12-18T17:58:30.146Z,17.83
2018-12-18T18:00:58.839Z,14.03
2018-12-18T18:03:27.261Z,19.13
2018-12-18T18:05:55.632Z,16.23
2018-12-18T18:08:24.073Z,17.97
2018-12-18T18:10:52.458Z,16.93
2018-12-18T18:13:22.017Z,19.43
2018-12-18T18:15:53.828Z,14.77
2018-12-18T18:18:24.274Z,15.77
2018-12-18T18:20:53.756Z,16.70
2018-12-18T18:23:22.337Z,20.27
2018-12-18T18:25:52.044Z,19.00
2018-12-18T18:28:20.437Z,17.50
2018-12-18T18:30:48.796Z,19.63
2018-12-18T18:33:17.273Z,20.10
2018-12-18T18:35:46.388Z,18.30
2018-12-18T18:38:15.663Z,19.77
2018-12-18T18:40:44.736Z,18.30
2018-12-18T18:43:14.460Z,20.00
2018-12-18T18:45:42.875Z,17.40
2018-12-18T18:48:11.292Z,16.40
2018-12-18T18:50:39.657Z,15.27
2018-12-18T18:53:09.008Z,22.13
2018-12-18T18:55:37.442Z,20.20
2018-12-18T18:58:07.547Z,17.40
2018-12-18T19:00:38.919Z,22.63
2018-12-18T19:03:07.385Z,23.70
2018-12-18T19:05:36.776Z,23.87
2018-12-18T19:08:05.259Z,21.23
2018-12-18T19:10:33.702Z,17.80
2018-12-18T19:13:02.099Z,15.73
2018-12-18T19:15:30.500Z,24.80
2018-12-18T19:17:59.014Z,19.03
2018-12-18T19:20:27.408Z,16.67
2018-12-18T19:22:55.825Z,16.50
2018-12-18T19:25:24.237Z,17.50
2018-12-18T19:27:53.654Z,20.50
2018-12-18T19:30:25.652Z,15.60
2018-12-18T19:32:55.121Z,20.50
2018-12-18T19:35:23.730Z,18.03
2018-12-18T19:37:52.654Z,19.30
2018-12-18T19:40:21.358Z,63.00
2018-12-18T19:42:49.992Z,35.93
2018-12-18T19:45:19.469Z,25.87
2018-12-18T19:47:49.283Z,19.07
2018-12-18T19:50:17.824Z,21.20
2018-12-18T19:52:48.200Z,16.60
2018-12-18T19:55:21.483Z,17.07
2018-12-18T19:57:54.016Z,20.03
2018-12-18T20:00:22.732Z,19.90
2018-12-18T20:02:54.811Z,19.33
2018-12-18T20:05:23.591Z,17.00
2018-12-18T20:07:53.722Z,23.07
2018-12-18T20:10:22.961Z,16.97
2018-12-18T20:12:51.494Z,21.53
2018-12-18T20:15:20.106Z,17.57
2018-12-18T20:17:49.585Z,18.50
2018-12-18T20:20:18.131Z,20.03
2018-12-18T20:22:46.693Z,16.93
2018-12-18T20:25:15.194Z,18.60
2018-12-18T20:27:43.722Z,18.57
2018-12-18T20:30:12.218Z,18.47
2018-12-18T20:32:40.670Z,23.40
2018-12-18T20:35:09.085Z,22.60
2018-12-18T20:37:37.524Z,20.97
2018-12-18T20:40:08.644Z,21.87
2018-12-18T20:42:37.936Z,22.83
2018-12-18T20:45:07.728Z,21.57
2018-12-18T20:47:36.095Z,17.13
2018-12-18T20:50:05.820Z,18.70
2018-12-18T20:52:34.217Z,20.13
2018-12-18T20:55:02.611Z,34.30
2018-12-18T20:57:31.753Z,36.50
2018-12-18T21:00:00.857Z,26.10
2018-12-18T21:02:29.441Z,29.23
2018-12-18T21:04:57.937Z,28.87
2018-12-18T21:07:27.584Z,24.03
2018-12-18T21:09:56.769Z,20.63
2018-12-18T21:12:26.335Z,28.63
2018-12-18T21:15:00.689Z,36.43
2018-12-18T21:17:25.972Z,31.97
2018-12-18T21:19:54.346Z,34.17
2018-12-18T21:22:22.702Z,20.57
2018-12-18T21:24:51.154Z,29.63
2018-12-18T21:30:04.032Z,23.13
2018-12-18T21:32:37.887Z,17.20
2018-12-18T21:35:06.464Z,14.90
2018-12-18T21:37:34.967Z,13.03
2018-12-18T21:40:03.385Z,17.33
2018-12-18T21:42:31.858Z,14.07
2018-12-18T21:45:00.534Z,18.90
2018-12-18T21:47:29.129Z,13.93
2018-12-18T21:49:58.534Z,14.70
2018-12-18T21:52:27.193Z,9.90
2018-12-18T21:54:55.709Z,11.60
2018-12-18T21:57:24.143Z,14.83
2018-12-18T21:59:55.182Z,12.57
2018-12-18T22:02:25.448Z,13.10
2018-12-18T22:04:53.880Z,14.47
2018-12-18T22:07:25.978Z,17.73
2018-12-18T22:09:54.983Z,14.93
2018-12-18T22:12:23.376Z,11.27
2018-12-18T22:14:51.755Z,14.00
2018-12-18T22:17:20.876Z,15.40
2018-12-18T22:19:49.222Z,13.33
2018-12-18T22:22:18.320Z,14.20
2018-12-18T22:24:46.724Z,11.63
2018-12-18T22:27:15.176Z,8.50
2018-12-18T22:29:43.865Z,11.27
2018-12-18T22:32:12.219Z,12.13
2018-12-18T22:34:40.846Z,10.53
2018-12-18T22:37:11.755Z,10.60
2018-12-18T22:39:40.165Z,14.77
2018-12-18T22:42:08.513Z,17.03
2018-12-18T22:44:37.221Z,15.30
2018-12-18T22:47:05.666Z,15.13
2018-12-18T22:49:34.585Z,14.43
2018-12-18T22:52:04.122Z,12.30
2018-12-18T22:54:33.052Z,13.13
2018-12-18T22:57:01.448Z,10.60
2018-12-18T22:59:29.972Z,7.90
2018-12-18T23:02:00.373Z,10.17
2018-12-18T23:04:29.531Z,9.13
2018-12-18T23:06:57.939Z,9.20
2018-12-18T23:09:26.399Z,7.80
2018-12-18T23:11:55.316Z,10.73
2018-12-18T23:14:23.716Z,7.03
2018-12-18T23:16:52.543Z,7.70
2018-12-18T23:19:20.947Z,10.40
2018-12-18T23:21:49.358Z,12.40
2018-12-18T23:24:17.684Z,8.00
2018-12-18T23:26:46.005Z,12.13
2018-12-18T23:29:14.420Z,7.57
2018-12-18T23:31:42.817Z,10.20
2018-12-18T23:34:11.889Z,8.30
2018-12-18T23:36:41.011Z,10.70
2018-12-18T23:39:11.117Z,8.17
2018-12-18T23:41:40.307Z,8.90
2018-12-18T23:44:08.894Z,9.77
2018-12-18T23:46:37.679Z,6.60
2018-12-18T23:49:06.219Z,9.63
2018-12-18T23:51:34.619Z,12.20
2018-12-18T23:54:04.352Z,12.10
2018-12-18T23:56:32.933Z,7.87
2018-12-18T23:59:01.342Z,9.40
